createdAt,value
2022-10-29T00:00:58.386Z,99.90
2022-10-29T00:03:26.191Z,99.90
2022-10-29T00:06:04.845Z,99.90
2022-10-29T00:08:33.596Z,99.90
2022-10-29T00:11:09.465Z,99.90
2022-10-29T00:13:37.148Z,99.90
2022-10-29T00:16:17.719Z,99.90
2022-10-29T00:18:45.113Z,99.90
2022-10-29T00:21:14.920Z,99.90
2022-10-29T00:23:42.370Z,99.90
2022-10-29T00:26:09.485Z,99.90
2022-10-29T00:28:36.522Z,99.90
2022-10-29T00:31:08.439Z,99.90
2022-10-29T00:33:35.238Z,99.90
2022-10-29T00:36:05.307Z,99.90
2022-10-29T00:38:33.272Z,99.90
2022-10-29T00:41:00.235Z,99.90
2022-10-29T00:43:27.888Z,99.90
2022-10-29T00:46:01.957Z,99.90
2022-10-29T00:48:33.533Z,99.90
2022-10-29T00:51:03.503Z,99.90
2022-10-29T00:53:34.973Z,99.90
2022-10-29T00:56:02.288Z,99.90
2022-10-29T00:58:29.627Z,99.90
2022-10-29T01:00:56.493Z,99.90
2022-10-29T01:03:23.236Z,99.90
2022-10-29T01:05:51.548Z,99.90
2022-10-29T01:08:19.277Z,99.90
2022-10-29T01:11:00.557Z,99.90
2022-10-29T01:13:54.366Z,99.90
2022-10-29T01:16:46.978Z,99.90
2022-10-29T01:19:45.932Z,99.90
2022-10-29T01:22:35.124Z,99.90
2022-10-29T01:25:39.543Z,99.90
2022-10-29T01:28:34.621Z,99.90
2022-10-29T01:31:12.979Z,99.90
2022-10-29T01:34:00.419Z,99.90
2022-10-29T01:36:48.105Z,99.90
2022-10-29T01:39:37.904Z,99.90
2022-10-29T01:42:23.652Z,99.90
2022-10-29T01:44:53.506Z,99.90
2022-10-29T01:47:21.909Z,99.90
2022-10-29T01:49:57.330Z,99.90
2022-10-29T01:52:27.760Z,99.90
2022-10-29T01:54:55.047Z,99.90
2022-10-29T01:57:39.564Z,99.90
2022-10-29T02:00:15.451Z,99.90
2022-10-29T02:03:23.611Z,99.90
2022-10-29T02:05:50.327Z,99.90
2022-10-29T02:08:17.028Z,99.90
2022-10-29T02:11:01.831Z,99.90
2022-10-29T02:13:33.194Z,99.90
2022-10-29T02:16:05.161Z,99.90
2022-10-29T02:18:38.921Z,99.90
2022-10-29T02:21:05.938Z,99.90
2022-10-29T02:23:32.851Z,99.90
2022-10-29T02:25:59.608Z,99.90
2022-10-29T02:28:26.343Z,99.90
2022-10-29T02:30:53.183Z,99.90
2022-10-29T02:33:21.339Z,99.90
2022-10-29T02:35:48.126Z,99.90
2022-10-29T02:38:14.971Z,99.90
2022-10-29T02:40:41.729Z,99.90
2022-10-29T02:43:08.583Z,99.90
2022-10-29T02:45:35.375Z,99.90
2022-10-29T02:48:02.228Z,99.90
2022-10-29T02:50:29.069Z,99.90
2022-10-29T02:52:55.863Z,99.90
2022-10-29T02:55:22.871Z,99.90
2022-10-29T02:57:49.709Z,99.90
2022-10-29T03:00:16.722Z,99.90
2022-10-29T03:02:43.558Z,99.90
2022-10-29T03:05:11.011Z,99.90
2022-10-29T03:07:38.725Z,99.90
2022-10-29T03:10:06.790Z,99.90
2022-10-29T03:12:33.878Z,99.90
2022-10-29T03:15:00.673Z,99.90
2022-10-29T03:17:27.515Z,99.90
2022-10-29T03:19:54.283Z,99.90
2022-10-29T03:22:21.078Z,99.90
2022-10-29T03:24:47.893Z,99.90
2022-10-29T03:27:14.660Z,99.90
2022-10-29T03:29:41.463Z,99.90
2022-10-29T03:32:08.242Z,99.90
2022-10-29T03:34:35.076Z,99.90
2022-10-29T03:37:01.877Z,99.90
2022-10-29T03:39:28.635Z,99.90
2022-10-29T03:41:55.387Z,99.90
2022-10-29T03:44:22.168Z,99.90
2022-10-29T03:46:48.910Z,99.90
2022-10-29T03:49:15.806Z,99.90
2022-10-29T03:51:42.574Z,99.90
2022-10-29T03:54:09.368Z,99.90
2022-10-29T03:56:36.177Z,99.90
2022-10-29T03:59:03.040Z,99.90
2022-10-29T04:01:29.956Z,99.90
2022-10-29T04:03:56.800Z,99.90
2022-10-29T04:06:23.570Z,99.90
2022-10-29T04:08:50.336Z,99.90
2022-10-29T04:11:17.101Z,99.90
2022-10-29T04:13:43.919Z,99.90
2022-10-29T04:16:10.711Z,99.90
2022-10-29T04:18:37.478Z,99.90
2022-10-29T04:27:07.972Z,99.90
2022-10-29T04:29:25.282Z,99.90
2022-10-29T04:31:52.055Z,99.90
2022-10-29T04:34:18.816Z,99.90
2022-10-29T04:36:45.596Z,99.90
2022-10-29T04:39:12.495Z,99.90
2022-10-29T04:41:39.285Z,99.90
2022-10-29T04:44:06.100Z,99.90
2022-10-29T04:46:32.855Z,99.90
2022-10-29T04:48:59.864Z,99.90
2022-10-29T04:51:27.574Z,99.90
2022-10-29T04:53:54.399Z,99.90
2022-10-29T04:56:21.437Z,99.90
2022-10-29T04:58:52.062Z,99.90
2022-10-29T05:01:19.326Z,99.90
2022-10-29T05:03:46.282Z,99.90
2022-10-29T05:06:13.238Z,99.90
2022-10-29T05:08:40.071Z,99.90
2022-10-29T05:11:07.346Z,99.90
2022-10-29T05:13:34.758Z,99.90
2022-10-29T05:16:01.625Z,99.90
2022-10-29T05:18:28.393Z,99.90
2022-10-29T05:20:56.242Z,99.90
2022-10-29T05:23:23.546Z,99.90
2022-10-29T05:25:52.379Z,99.90
2022-10-29T05:28:21.347Z,99.90
2022-10-29T05:30:50.463Z,99.90
2022-10-29T05:33:20.202Z,99.90
2022-10-29T05:35:47.763Z,99.90
2022-10-29T05:38:15.482Z,99.90
2022-10-29T05:40:45.215Z,99.90
2022-10-29T05:43:14.037Z,99.90
2022-10-29T05:45:41.392Z,99.90
2022-10-29T05:48:10.049Z,99.90
2022-10-29T05:50:36.857Z,99.90
2022-10-29T05:53:09.563Z,99.90
2022-10-29T05:55:36.910Z,99.90
2022-10-29T05:58:06.338Z,99.90
2022-10-29T06:00:36.084Z,99.90
2022-10-29T06:03:02.906Z,99.90
2022-10-29T06:05:29.826Z,99.90
2022-10-29T06:07:58.214Z,99.90
2022-10-29T06:10:26.433Z,99.90
2022-10-29T06:12:53.216Z,99.90
2022-10-29T06:15:20.363Z,99.90
2022-10-29T06:17:47.700Z,99.90
2022-10-29T06:20:16.872Z,99.90
2022-10-29T06:22:43.683Z,99.90
2022-10-29T06:25:10.573Z,99.90
2022-10-29T06:27:37.427Z,99.90
2022-10-29T06:30:05.556Z,99.90
2022-10-29T06:32:32.378Z,99.90
2022-10-29T06:34:59.181Z,99.90
2022-10-29T06:37:25.995Z,99.90
2022-10-29T06:39:52.782Z,99.90
2022-10-29T06:42:19.644Z,99.90
2022-10-29T06:44:46.497Z,99.90
2022-10-29T06:47:13.413Z,99.90
2022-10-29T06:49:40.528Z,99.90
2022-10-29T06:52:07.544Z,99.90
2022-10-29T06:54:34.347Z,99.90
2022-10-29T06:57:01.134Z,99.90
2022-10-29T06:59:27.917Z,99.90
2022-10-29T07:01:54.756Z,99.90
2022-10-29T07:04:21.585Z,99.90
2022-10-29T07:06:48.464Z,99.90
2022-10-29T07:09:15.303Z,99.90
2022-10-29T07:11:42.254Z,99.90
2022-10-29T07:14:09.994Z,99.90
2022-10-29T07:16:37.000Z,99.90
2022-10-29T07:19:05.437Z,99.90
2022-10-29T07:21:32.301Z,99.90
2022-10-29T07:23:59.128Z,99.90
2022-10-29T07:26:25.881Z,99.90
2022-10-29T07:28:57.078Z,99.90
2022-10-29T07:31:24.707Z,99.90
2022-10-29T07:33:51.928Z,99.90
2022-10-29T07:36:18.696Z,99.90
2022-10-29T07:38:45.606Z,99.90
2022-10-29T07:41:12.417Z,99.90
2022-10-29T07:43:39.293Z,99.90
2022-10-29T07:46:06.461Z,99.90
2022-10-29T07:48:33.572Z,99.90
2022-10-29T07:51:01.650Z,99.90
2022-10-29T07:53:31.337Z,99.90
2022-10-29T07:55:58.844Z,99.90
2022-10-29T07:58:26.378Z,99.90
2022-10-29T08:00:53.659Z,99.90
2022-10-29T08:03:20.976Z,99.90
2022-10-29T08:05:55.286Z,99.90
2022-10-29T08:08:23.686Z,99.90
2022-10-29T08:10:50.531Z,99.90
2022-10-29T08:13:17.354Z,99.90
2022-10-29T08:15:47.090Z,99.90
2022-10-29T08:18:17.956Z,99.90
2022-10-29T08:20:45.411Z,99.90
2022-10-29T08:23:15.714Z,99.90
2022-10-29T08:25:43.435Z,99.90
2022-10-29T08:28:12.923Z,99.90
2022-10-29T08:30:40.248Z,99.90
2022-10-29T08:33:07.591Z,99.90
2022-10-29T08:35:34.490Z,99.90
2022-10-29T08:38:01.510Z,99.90
2022-10-29T08:40:35.842Z,99.90
2022-10-29T08:43:33.563Z,99.90
2022-10-29T08:46:00.822Z,99.90
2022-10-29T08:48:33.630Z,99.90
2022-10-29T08:51:08.614Z,99.90
2022-10-29T08:53:41.258Z,99.90
2022-10-29T08:56:28.952Z,99.90
2022-10-29T08:59:16.743Z,99.90
2022-10-29T09:01:44.538Z,99.90
2022-10-29T09:04:26.350Z,99.90
2022-10-29T09:07:13.227Z,99.90
2022-10-29T09:10:01.754Z,99.90
2022-10-29T09:12:34.415Z,99.90
2022-10-29T09:15:30.550Z,99.90
2022-10-29T09:18:17.608Z,99.90
2022-10-29T09:21:15.813Z,99.90
2022-10-29T09:23:52.626Z,99.90
2022-10-29T09:26:40.926Z,99.90
2022-10-29T09:29:35.548Z,99.90
2022-10-29T09:32:25.052Z,99.90
2022-10-29T09:34:56.644Z,99.90
2022-10-29T09:37:48.741Z,99.90
2022-10-29T09:40:17.547Z,99.90
2022-10-29T09:42:47.988Z,99.90
2022-10-29T09:45:18.259Z,99.90
2022-10-29T09:48:08.855Z,99.90
2022-10-29T09:50:46.040Z,99.90
2022-10-29T09:53:12.911Z,99.90
2022-10-29T09:55:43.490Z,99.90
2022-10-29T09:58:19.745Z,99.90
2022-10-29T10:00:46.658Z,99.90
2022-10-29T10:03:20.650Z,99.90
2022-10-29T10:06:01.518Z,99.90
2022-10-29T10:08:28.752Z,99.90
2022-10-29T10:11:02.068Z,99.90
2022-10-29T10:13:38.510Z,99.90
2022-10-29T10:16:06.593Z,99.90
2022-10-29T10:18:33.488Z,99.90
2022-10-29T10:21:23.943Z,99.90
2022-10-29T10:23:57.613Z,99.90
2022-10-29T10:26:44.288Z,99.90
2022-10-29T10:29:22.051Z,99.90
2022-10-29T10:32:09.493Z,99.90
2022-10-29T10:34:38.765Z,99.90
2022-10-29T10:37:14.629Z,99.90
2022-10-29T10:39:44.141Z,99.90
2022-10-29T10:42:19.764Z,99.90
2022-10-29T10:44:52.333Z,99.90
2022-10-29T10:47:22.659Z,99.90
2022-10-29T10:49:49.605Z,99.90
2022-10-29T10:52:30.299Z,99.90
2022-10-29T10:55:29.868Z,99.90
2022-10-29T10:58:08.900Z,99.90
2022-10-29T11:01:09.221Z,99.90
2022-10-29T11:03:43.880Z,99.90
2022-10-29T11:06:40.101Z,99.90
2022-10-29T11:09:27.092Z,99.90
2022-10-29T11:12:13.554Z,99.90
2022-10-29T11:14:48.866Z,99.90
2022-10-29T11:17:35.778Z,99.90
2022-10-29T11:20:15.012Z,99.90
2022-10-29T11:23:06.923Z,99.90
2022-10-29T11:25:45.268Z,99.90
2022-10-29T11:28:24.525Z,99.90
2022-10-29T11:30:58.436Z,99.90
2022-10-29T11:33:42.449Z,99.90
2022-10-29T11:36:22.910Z,99.90
2022-10-29T11:38:52.173Z,99.90
2022-10-29T11:41:24.700Z,99.90
2022-10-29T11:43:51.640Z,99.90
2022-10-29T11:46:34.091Z,99.90
2022-10-29T11:49:25.355Z,99.90
2022-10-29T11:52:04.182Z,99.90
2022-10-29T11:54:43.012Z,99.90
2022-10-29T11:57:17.787Z,99.90
2022-10-29T11:59:47.560Z,99.90
2022-10-29T12:02:54.618Z,99.90
2022-10-29T12:05:30.885Z,99.90
2022-10-29T12:08:16.752Z,99.90
2022-10-29T12:11:05.133Z,99.90
2022-10-29T12:13:56.733Z,99.90
2022-10-29T12:16:45.118Z,99.90
2022-10-29T12:19:23.916Z,99.90
2022-10-29T12:21:56.175Z,99.90
2022-10-29T12:24:22.934Z,99.90
2022-10-29T12:27:14.483Z,99.90
2022-10-29T12:30:02.924Z,99.90
2022-10-29T12:33:07.143Z,99.90
2022-10-29T12:35:39.114Z,99.90
2022-10-29T12:38:35.146Z,99.50
2022-10-29T12:41:07.369Z,99.90
2022-10-29T12:43:38.324Z,99.10
2022-10-29T12:46:43.642Z,98.40
2022-10-29T12:49:10.377Z,99.90
2022-10-29T12:51:59.788Z,99.00
2022-10-29T12:54:39.426Z,99.20
2022-10-29T12:57:13.483Z,99.40
2022-10-29T12:59:41.760Z,98.70
2022-10-29T13:02:41.863Z,98.00
2022-10-29T13:05:11.338Z,98.00
2022-10-29T13:07:45.181Z,99.10
2022-10-29T13:10:29.452Z,99.00
2022-10-29T13:12:59.319Z,97.90
2022-10-29T13:15:30.925Z,97.30
2022-10-29T13:18:04.709Z,96.40
2022-10-29T13:20:41.545Z,97.00
2022-10-29T13:23:23.580Z,97.00
2022-10-29T13:25:54.207Z,97.50
2022-10-29T13:28:21.157Z,98.90
2022-10-29T13:30:53.419Z,99.40
2022-10-29T13:33:29.366Z,99.10
2022-10-29T13:36:00.452Z,99.90
2022-10-29T13:39:05.619Z,99.30
2022-10-29T13:41:42.840Z,99.90
2022-10-29T13:44:11.740Z,99.90
2022-10-29T13:46:47.359Z,99.90
2022-10-29T13:49:21.954Z,99.90
2022-10-29T13:52:05.358Z,99.90
2022-10-29T13:54:57.543Z,99.90
2022-10-29T13:57:38.428Z,99.90
2022-10-29T14:00:17.025Z,99.90
2022-10-29T14:02:43.872Z,99.90
2022-10-29T14:05:34.934Z,99.90
2022-10-29T14:08:24.607Z,99.90
2022-10-29T14:10:59.286Z,99.90
2022-10-29T14:13:31.282Z,99.90
2022-10-29T14:16:10.776Z,99.90
2022-10-29T14:18:40.377Z,99.90
2022-10-29T14:21:26.610Z,99.90
2022-10-29T14:23:56.595Z,99.90
2022-10-29T14:26:24.804Z,99.90
2022-10-29T14:28:53.259Z,99.90
2022-10-29T14:31:22.494Z,99.90
2022-10-29T14:34:00.865Z,99.90
2022-10-29T14:36:33.941Z,99.90
2022-10-29T14:39:03.782Z,99.90
2022-10-29T14:41:31.685Z,99.90
2022-10-29T14:44:04.371Z,99.90
2022-10-29T14:46:34.269Z,99.90
2022-10-29T14:49:15.226Z,99.90
2022-10-29T14:51:51.855Z,99.90
2022-10-29T14:54:35.951Z,99.90
2022-10-29T14:57:13.649Z,99.90
2022-10-29T14:59:57.214Z,99.90
2022-10-29T15:02:37.727Z,99.90
2022-10-29T15:05:26.689Z,99.90
2022-10-29T15:08:05.812Z,99.90
2022-10-29T15:10:32.930Z,99.90
2022-10-29T15:13:19.524Z,99.90
2022-10-29T15:15:58.816Z,99.90
2022-10-29T15:18:26.373Z,99.90
2022-10-29T15:20:57.225Z,99.90
2022-10-29T15:23:34.113Z,99.90
2022-10-29T15:26:04.067Z,99.90
2022-10-29T15:28:37.450Z,99.90
2022-10-29T15:31:04.914Z,99.90
2022-10-29T15:33:32.458Z,99.90
2022-10-29T15:36:03.121Z,99.90
2022-10-29T15:38:34.360Z,99.90
2022-10-29T15:41:19.994Z,99.90
2022-10-29T15:43:52.495Z,99.90
2022-10-29T15:46:26.624Z,99.90
2022-10-29T15:48:56.876Z,99.90
2022-10-29T15:51:29.507Z,99.90
2022-10-29T15:53:58.602Z,99.90
2022-10-29T15:56:25.776Z,99.90
2022-10-29T15:58:53.487Z,99.90
2022-10-29T16:01:20.592Z,99.90
2022-10-29T16:03:47.548Z,99.90
2022-10-29T16:06:16.090Z,99.90
2022-10-29T16:08:48.846Z,99.90
2022-10-29T16:11:20.170Z,99.90
2022-10-29T16:13:53.432Z,99.90
2022-10-29T16:16:23.781Z,99.90
2022-10-29T16:18:51.414Z,99.90
2022-10-29T16:21:23.678Z,99.90
2022-10-29T16:23:51.446Z,99.90
2022-10-29T16:26:27.317Z,99.90
2022-10-29T16:28:54.220Z,99.90
2022-10-29T16:31:25.370Z,99.90
2022-10-29T16:33:54.814Z,99.90
2022-10-29T16:36:21.561Z,99.90
2022-10-29T16:38:48.350Z,99.90
2022-10-29T16:41:17.352Z,99.90
2022-10-29T16:43:44.870Z,99.90
2022-10-29T16:46:12.790Z,99.90
2022-10-29T16:48:39.752Z,99.90
2022-10-29T16:51:06.785Z,99.90
2022-10-29T16:53:33.606Z,99.90
2022-10-29T16:56:01.672Z,99.90
2022-10-29T16:58:28.504Z,99.90
2022-10-29T17:01:05.846Z,99.90
2022-10-29T17:03:36.156Z,99.90
2022-10-29T17:06:08.578Z,99.90
2022-10-29T17:08:36.538Z,99.90
2022-10-29T17:11:06.015Z,99.90
2022-10-29T17:13:34.778Z,99.90
2022-10-29T17:16:05.791Z,99.90
2022-10-29T17:18:33.010Z,99.90
2022-10-29T17:21:01.613Z,99.90
2022-10-29T17:23:29.087Z,99.90
2022-10-29T17:25:57.487Z,99.90
2022-10-29T17:28:26.122Z,99.90
2022-10-29T17:30:53.144Z,99.90
2022-10-29T17:33:20.224Z,99.90
2022-10-29T17:35:47.190Z,99.90
2022-10-29T17:38:14.298Z,99.90
2022-10-29T17:40:44.378Z,99.90
2022-10-29T17:43:11.157Z,99.90
2022-10-29T17:45:37.932Z,99.90
2022-10-29T17:48:04.835Z,99.90
2022-10-29T17:50:31.589Z,99.90
2022-10-29T17:52:58.922Z,99.90
2022-10-29T17:55:25.685Z,99.90
2022-10-29T17:57:52.460Z,99.90
2022-10-29T18:00:19.332Z,99.90
2022-10-29T18:02:49.804Z,99.90
2022-10-29T18:05:17.202Z,99.90
2022-10-29T18:07:44.069Z,99.90
2022-10-29T18:10:11.121Z,99.90
2022-10-29T18:12:37.889Z,99.90
2022-10-29T18:15:05.413Z,99.90
2022-10-29T18:17:32.667Z,99.90
2022-10-29T18:19:59.623Z,99.90
2022-10-29T18:22:26.439Z,99.90
2022-10-29T18:24:53.309Z,99.90
2022-10-29T18:27:20.330Z,99.90
2022-10-29T18:29:47.188Z,99.90
2022-10-29T18:32:14.010Z,99.90
2022-10-29T18:34:41.537Z,99.90
2022-10-29T18:37:08.334Z,99.90
2022-10-29T18:39:35.153Z,99.90
2022-10-29T18:42:02.035Z,99.90
2022-10-29T18:44:28.818Z,99.90
2022-10-29T18:46:55.871Z,99.90
2022-10-29T18:49:22.662Z,99.90
2022-10-29T18:51:49.514Z,99.90
2022-10-29T18:54:16.451Z,99.90
2022-10-29T18:56:43.319Z,99.90
2022-10-29T18:59:11.394Z,99.90
2022-10-29T19:01:38.589Z,99.90
2022-10-29T19:04:08.417Z,99.90
2022-10-29T19:06:37.330Z,99.90
2022-10-29T19:09:07.728Z,99.90
2022-10-29T19:11:34.876Z,99.90
2022-10-29T19:14:06.905Z,99.90
2022-10-29T19:16:34.249Z,99.90
2022-10-29T19:19:06.957Z,99.90
2022-10-29T19:21:35.785Z,99.90
2022-10-29T19:24:03.374Z,99.90
2022-10-29T19:26:32.745Z,99.90
2022-10-29T19:29:01.417Z,99.90
2022-10-29T19:31:30.126Z,99.90
2022-10-29T19:34:00.046Z,99.90
2022-10-29T19:36:28.193Z,99.90
2022-10-29T19:38:55.715Z,99.90
2022-10-29T19:41:22.759Z,99.90
2022-10-29T19:43:49.649Z,99.90
2022-10-29T19:46:18.734Z,99.90
2022-10-29T19:48:50.761Z,99.90
2022-10-29T19:51:18.159Z,99.90
2022-10-29T19:53:45.982Z,99.90
2022-10-29T19:56:15.239Z,99.90
2022-10-29T19:58:42.488Z,99.90
2022-10-29T20:01:12.685Z,99.90
2022-10-29T20:03:39.636Z,99.90
2022-10-29T20:06:09.093Z,99.90
2022-10-29T20:08:39.069Z,99.90
2022-10-29T20:11:06.398Z,99.90
2022-10-29T20:13:33.576Z,99.90
2022-10-29T20:16:01.445Z,99.90
2022-10-29T20:18:28.231Z,99.90
2022-10-29T20:20:56.579Z,99.90
2022-10-29T20:23:25.728Z,99.90
2022-10-29T20:25:52.833Z,99.90
2022-10-29T20:28:19.701Z,99.90
2022-10-29T20:30:46.741Z,99.90
2022-10-29T20:33:13.619Z,99.90
2022-10-29T20:35:40.390Z,99.90
2022-10-29T20:38:07.242Z,99.90
2022-10-29T20:40:34.100Z,99.90
2022-10-29T20:43:01.103Z,99.90
2022-10-29T20:45:28.025Z,99.90
2022-10-29T20:47:55.155Z,99.90
2022-10-29T20:50:22.279Z,99.90
2022-10-29T20:52:50.518Z,99.90
2022-10-29T20:55:17.352Z,99.90
2022-10-29T20:57:44.131Z,99.90
2022-10-29T21:00:11.357Z,99.90
2022-10-29T21:02:38.197Z,99.90
2022-10-29T21:05:05.307Z,99.90
2022-10-29T21:07:32.221Z,99.90
2022-10-29T21:09:59.030Z,99.90
2022-10-29T21:12:25.871Z,99.90
2022-10-29T21:14:52.755Z,99.90
2022-10-29T21:17:22.099Z,99.90
2022-10-29T21:19:49.090Z,99.90
2022-10-29T21:22:18.815Z,99.90
2022-10-29T21:24:46.068Z,99.90
2022-10-29T21:27:12.931Z,99.90
2022-10-29T21:29:39.789Z,99.90
2022-10-29T21:32:07.756Z,99.90
2022-10-29T21:34:36.012Z,99.90
2022-10-29T21:37:02.831Z,99.90
2022-10-29T21:39:29.894Z,99.90
2022-10-29T21:41:57.074Z,99.90
2022-10-29T21:44:23.897Z,99.90
2022-10-29T21:46:50.734Z,99.90
2022-10-29T21:49:17.482Z,99.90
2022-10-29T21:51:44.282Z,99.90
2022-10-29T21:54:11.033Z,99.90
2022-10-29T21:56:37.829Z,99.90
2022-10-29T21:59:04.621Z,99.90
2022-10-29T22:01:31.617Z,99.90
2022-10-29T22:03:58.474Z,99.90
2022-10-29T22:06:28.531Z,99.90
2022-10-29T22:08:57.557Z,99.90
2022-10-29T22:11:26.238Z,99.90
2022-10-29T22:13:53.844Z,99.90
2022-10-29T22:16:21.515Z,99.90
2022-10-29T22:18:50.031Z,99.90
2022-10-29T22:21:21.086Z,99.90
2022-10-29T22:23:55.987Z,99.90
2022-10-29T22:26:28.835Z,99.90
2022-10-29T22:28:56.049Z,99.90
2022-10-29T22:31:24.222Z,99.90
2022-10-29T22:33:51.305Z,99.90
2022-10-29T22:36:23.657Z,99.90
2022-10-29T22:38:57.612Z,99.90
2022-10-29T22:41:26.063Z,99.90
2022-10-29T22:43:54.006Z,99.90
2022-10-29T22:46:22.213Z,99.90
2022-10-29T22:48:49.194Z,99.90
2022-10-29T22:51:19.016Z,99.90
2022-10-29T22:53:46.242Z,99.90
2022-10-29T22:56:19.661Z,99.90
2022-10-29T22:58:46.470Z,99.90
2022-10-29T23:01:15.783Z,99.90
2022-10-29T23:03:43.142Z,99.90
2022-10-29T23:06:11.949Z,99.90
2022-10-29T23:08:39.069Z,99.90
2022-10-29T23:11:19.181Z,99.90
2022-10-29T23:13:47.390Z,99.90
2022-10-29T23:16:14.554Z,99.90
2022-10-29T23:18:41.639Z,99.90
2022-10-29T23:21:08.909Z,99.90
2022-10-29T23:23:36.445Z,99.90
2022-10-29T23:26:04.270Z,99.90
2022-10-29T23:28:37.280Z,99.90
2022-10-29T23:31:06.278Z,99.90
2022-10-29T23:33:34.193Z,99.90
2022-10-29T23:36:07.805Z,99.90
2022-10-29T23:38:35.550Z,99.90
2022-10-29T23:41:02.820Z,99.90
2022-10-29T23:43:29.795Z,99.90
2022-10-29T23:45:56.842Z,99.90
2022-10-29T23:48:24.258Z,99.90
2022-10-29T23:50:51.338Z,99.90
2022-10-29T23:53:18.700Z,99.90
2022-10-29T23:55:45.771Z,99.90
2022-10-29T23:58:13.329Z,99.90
